East Fort Myers, Florida
Current Conditions -  °F | °C
As of 9:53 AM on Saturday 25 Oct 2014 (Local Time) from KFMY Reporting Station
Clear Clear  
Wind Chill: 71°   Ceiling: Unl
Heat Index: 71°   Visibility: 10mi
Dew Point: 57°   Wind: 15mph
Humidity: 61%   Direction: 20°NNE
Pressure: 29.98"   Gusts: NA
Location:  26.6355°N, 81.8675°W
Report Text: KFMY 251353Z 02013KT 10SM CLR 22/14 A2998 RMK AO2 SLP154 T02170139
Loading
Personal Weather Stations






























Interactive Weather Map
Tropical Storm Tracking
New forecast layout! Learn more

10-Day Weather Forecast

Advertisements
Track Severe Weather on mobile